Time;durP1;ratioP1;P1;durP2;ratioP2;P2;SDS_P1;SDS_P2;PMS_P1;PMS_P2;Temp;Humidity;BMP_temperature;BMP_pressure;BME280_temperature;BME280_humidity;BME280_pressure;Samples;Min_cycle;Max_cycle;Signal;HPM_P1;HPM_P2
2022/06/24 00:01:22;;;;;;;9.30;3.60;;;;;;;18.00;45.56;98793.11;109007;1279;22266;-81
2022/06/24 00:03:54;;;;;;;7.80;3.60;;;;;;;17.92;45.63;98790.04;108822;1279;22548;-81
2022/06/24 00:06:28;;;;;;;9.10;3.50;;;;;;;17.76;45.72;98788.80;109010;1279;23106;-82
2022/06/24 00:09:01;;;;;;;10.70;3.90;;;;;;;17.73;45.84;98795.44;108942;1279;23276;-82
2022/06/24 00:11:29;;;;;;;8.10;3.70;;;;;;;17.67;45.95;98795.39;109017;1279;22462;-82
2022/06/24 00:14:26;;;;;;;7.80;3.70;;;;;;;17.62;46.00;98794.48;108957;1279;22315;-82
2022/06/24 00:17:18;;;;;;;7.50;3.40;;;;;;;17.55;46.25;98797.02;108981;1279;22464;-82
2022/06/24 00:20:00;;;;;;;10.00;4.00;;;;;;;17.51;46.35;98798.61;109078;1281;22488;-82
2022/06/24 00:22:48;;;;;;;8.30;3.70;;;;;;;17.43;46.44;98796.58;108817;1281;23029;-82
2022/06/24 00:25:30;;;;;;;8.80;3.80;;;;;;;17.38;46.49;98806.52;108778;1281;22200;-81
2022/06/24 00:28:08;;;;;;;7.70;3.30;;;;;;;17.32;46.70;98806.80;108892;1281;22177;-82
2022/06/24 00:30:49;;;;;;;9.60;3.80;;;;;;;17.27;46.71;98806.67;108735;1281;22519;-82
2022/06/24 00:33:23;;;;;;;8.10;4.00;;;;;;;17.24;46.76;98808.13;108791;1281;22376;-82
2022/06/24 00:35:59;;;;;;;7.90;3.50;;;;;;;17.17;46.76;98805.97;108957;1281;22407;-82
2022/06/24 00:38:34;;;;;;;8.60;3.40;;;;;;;17.11;46.86;98805.95;108913;1281;22511;-82
2022/06/24 00:41:01;;;;;;;7.80;3.60;;;;;;;17.02;47.06;98805.73;108885;1282;22391;-82
2022/06/24 00:43:34;;;;;;;8.40;4.40;;;;;;;16.96;47.13;98804.95;108774;1281;23092;-81
2022/06/24 00:46:10;;;;;;;8.50;3.90;;;;;;;16.93;47.19;98809.22;108809;1281;22373;-81
2022/06/24 00:48:43;;;;;;;10.10;4.00;;;;;;;16.95;47.34;98806.08;108936;1281;22501;-82
2022/06/24 00:51:10;;;;;;;11.40;4.00;;;;;;;17.01;47.51;98808.01;108681;1280;22387;-81
2022/06/24 00:53:47;;;;;;;8.10;4.00;;;;;;;17.08;47.45;98802.26;108985;1281;23478;-81
2022/06/24 00:56:16;;;;;;;9.10;4.20;;;;;;;17.13;47.60;98801.42;109031;1281;22372;-82
2022/06/24 00:58:56;;;;;;;8.80;4.00;;;;;;;17.17;47.64;98792.71;108673;1281;23263;-81
2022/06/24 01:01:35;;;;;;;7.60;3.60;;;;;;;17.20;47.70;98791.99;108948;1281;22564;-81
2022/06/24 01:04:10;;;;;;;7.90;3.80;;;;;;;17.20;47.66;98786.25;109190;1280;22355;-82
2022/06/24 01:06:43;;;;;;;8.60;3.80;;;;;;;17.22;47.70;98787.27;108744;1281;23043;-81
2022/06/24 01:09:11;;;;;;;10.60;4.10;;;;;;;17.22;47.74;98784.85;108659;1280;22373;-82
2022/06/24 01:11:45;;;;;;;10.20;4.10;;;;;;;17.20;47.87;98787.50;108933;1281;22477;-81
2022/06/24 01:14:12;;;;;;;9.60;3.90;;;;;;;17.15;47.92;98783.56;109018;1281;22402;-82
2022/06/24 01:16:42;;;;;;;10.30;4.30;;;;;;;17.15;47.96;98791.11;108881;1281;22429;-82
2022/06/24 01:19:13;;;;;;;8.70;4.10;;;;;;;17.09;48.10;98787.27;108818;1281;23184;-82
2022/06/24 01:21:44;;;;;;;12.50;4.00;;;;;;;17.03;48.13;98781.25;108892;1281;22211;-82
2022/06/24 01:24:20;;;;;;;8.50;4.10;;;;;;;16.98;48.25;98782.27;108948;1281;22474;-82
2022/06/24 01:26:50;;;;;;;7.60;4.10;;;;;;;16.94;48.30;98782.09;108828;1281;22374;-82
2022/06/24 01:29:17;;;;;;;8.50;4.30;;;;;;;16.93;48.23;98785.33;108830;1281;23290;-82
2022/06/24 01:31:48;;;;;;;9.30;4.60;;;;;;;16.87;48.48;98779.55;108723;1281;22362;-82
2022/06/24 01:34:19;;;;;;;9.90;4.40;;;;;;;16.85;48.47;98775.33;108955;1281;23036;-82
2022/06/24 01:36:51;;;;;;;9.30;4.10;;;;;;;16.83;48.63;98775.51;108951;1281;23150;-81
2022/06/24 01:39:20;;;;;;;10.40;4.00;;;;;;;16.83;48.77;98771.05;108887;1280;22395;-82
2022/06/24 01:41:49;;;;;;;9.50;4.60;;;;;;;16.83;48.79;98769.91;108755;1281;22389;-82
2022/06/24 01:44:17;;;;;;;9.80;4.30;;;;;;;16.84;48.75;98771.06;108826;1281;22366;-82
2022/06/24 01:46:44;;;;;;;12.30;4.80;;;;;;;16.84;48.93;98770.18;109013;1280;22384;-82
2022/06/24 01:49:13;;;;;;;8.80;4.50;;;;;;;16.85;49.02;98769.22;108541;1281;22446;-82
2022/06/24 01:51:50;;;;;;;9.20;4.30;;;;;;;16.83;49.05;98772.61;108670;1281;22436;-82
2022/06/24 01:54:25;;;;;;;9.40;4.70;;;;;;;16.79;49.17;98765.40;108850;1281;22372;-82
2022/06/24 01:56:55;;;;;;;11.50;4.60;;;;;;;16.72;49.28;98764.58;108921;1281;22614;-82
2022/06/24 01:59:25;;;;;;;10.30;4.50;;;;;;;16.62;49.28;98761.59;108695;1281;22363;-82
2022/06/24 02:01:52;;;;;;;9.20;4.90;;;;;;;16.52;49.38;98761.02;108706;1282;22424;-81
2022/06/24 02:04:19;;;;;;;9.30;4.20;;;;;;;16.41;49.35;98762.16;108832;1282;22448;-81
2022/06/24 02:06:47;;;;;;;10.30;4.80;;;;;;;16.32;49.62;98765.23;108698;1282;22390;-82
2022/06/24 02:09:16;;;;;;;8.90;5.10;;;;;;;16.25;49.63;98767.70;108825;1282;22373;-82
2022/06/24 02:14:38;;;;;;;13.20;5.00;;;;;;;16.16;49.71;98761.59;108760;1281;22530;-82
2022/06/24 02:17:07;;;;;;;9.80;4.80;;;;;;;16.15;49.81;98761.71;108728;1281;22484;-82
2022/06/24 02:19:40;;;;;;;8.80;4.60;;;;;;;16.17;49.98;98762.27;108686;1281;22377;-82
2022/06/24 02:22:10;;;;;;;10.90;4.70;;;;;;;16.13;49.93;98759.02;108890;1281;22419;-82
2022/06/24 02:24:40;;;;;;;10.20;4.70;;;;;;;16.10;50.07;98758.79;109071;1280;22445;-82
2022/06/24 02:27:08;;;;;;;11.00;4.80;;;;;;;16.10;50.15;98760.44;108586;1280;22979;-82
2022/06/24 02:29:37;;;;;;;8.90;4.80;;;;;;;16.11;50.29;98759.45;108894;1281;22451;-82
2022/06/24 02:32:07;;;;;;;8.50;4.90;;;;;;;16.09;50.28;98753.77;109234;1281;22383;-82
2022/06/24 02:34:37;;;;;;;10.90;5.50;;;;;;;16.08;50.36;98755.71;109279;1280;22451;-82
2022/06/24 02:37:07;;;;;;;11.50;5.40;;;;;;;16.06;50.40;98756.86;108879;1280;22613;-82
2022/06/24 02:39:34;;;;;;;10.40;5.60;;;;;;;15.98;50.39;98756.71;108950;1280;22366;-82
2022/06/24 02:42:05;;;;;;;8.40;4.70;;;;;;;15.93;50.61;98759.55;108840;1281;22400;-82
2022/06/24 02:44:32;;;;;;;9.10;5.00;;;;;;;15.89;50.74;98761.30;109000;1281;22439;-82
2022/06/24 02:47:01;;;;;;;9.20;4.80;;;;;;;15.88;50.74;98763.30;108743;1280;22478;-82
2022/06/24 02:49:31;;;;;;;10.00;5.20;;;;;;;15.88;50.77;98764.61;108841;1281;22453;-82
2022/06/24 02:52:08;;;;;;;11.40;5.40;;;;;;;15.91;50.83;98769.88;108757;1281;22554;-82
2022/06/24 02:54:42;;;;;;;9.30;4.50;;;;;;;15.92;50.82;98767.59;108981;1280;23220;-82
2022/06/24 02:57:14;;;;;;;9.10;5.10;;;;;;;15.99;50.98;98770.84;108959;1280;22425;-82
2022/06/24 02:59:45;;;;;;;10.10;5.10;;;;;;;15.99;51.04;98767.48;108942;1281;22228;-82
2022/06/24 03:02:17;;;;;;;10.50;5.10;;;;;;;16.01;51.02;98768.21;108795;1281;22182;-82
2022/06/24 03:04:56;;;;;;;10.80;5.30;;;;;;;16.00;51.09;98767.88;108834;1281;22385;-82
2022/06/24 03:07:24;;;;;;;11.60;5.00;;;;;;;16.02;51.13;98766.73;108897;1281;22427;-81
2022/06/24 03:10:02;;;;;;;10.00;4.70;;;;;;;15.99;51.27;98764.88;108733;1281;22182;-82
2022/06/24 03:12:35;;;;;;;12.20;5.40;;;;;;;15.95;51.37;98758.48;109292;1281;22445;-82
2022/06/24 03:15:12;;;;;;;10.20;5.20;;;;;;;15.97;51.18;98764.77;108928;1280;22487;-82
2022/06/24 03:17:50;;;;;;;12.50;5.60;;;;;;;15.95;51.43;98759.03;108827;1281;22368;-82
2022/06/24 03:20:40;;;;;;;10.30;5.50;;;;;;;15.96;51.49;98755.18;109022;1281;23077;-82
2022/06/24 03:23:07;;;;;;;9.90;5.00;;;;;;;15.92;51.62;98751.98;108969;1281;22179;-82
2022/06/24 03:25:48;;;;;;;11.40;4.90;;;;;;;15.94;51.72;98756.42;108802;1281;22319;-81
2022/06/24 03:28:58;;;;;;;12.10;5.60;;;;;;;15.94;51.79;98746.94;108927;1280;22325;-82
2022/06/24 03:31:37;;;;;;;10.80;5.10;;;;;;;16.01;51.95;98750.31;109257;1281;22415;-82
2022/06/24 03:34:15;;;;;;;10.50;5.10;;;;;;;16.04;51.93;98752.02;109202;1281;22271;-82
2022/06/24 03:36:46;;;;;;;10.60;5.20;;;;;;;16.06;51.99;98749.48;108940;1281;22443;-81
2022/06/24 03:39:31;;;;;;;10.50;5.10;;;;;;;16.07;51.94;98753.19;108820;1281;23507;-82
2022/06/24 03:42:11;;;;;;;11.60;5.50;;;;;;;16.07;52.04;98753.94;108737;1281;23059;-82
2022/06/24 03:44:46;;;;;;;11.40;5.70;;;;;;;16.08;52.11;98748.94;108863;1280;22395;-82
2022/06/24 03:47:13;;;;;;;10.90;5.40;;;;;;;16.09;52.23;98744.20;108821;1281;22392;-82
2022/06/24 03:49:46;;;;;;;11.40;5.40;;;;;;;16.14;52.22;98744.42;108956;1281;22558;-82
2022/06/24 03:52:27;;;;;;;10.20;5.60;;;;;;;16.16;52.27;98740.77;108795;1281;22506;-82
2022/06/24 03:55:10;;;;;;;14.40;5.50;;;;;;;16.26;52.34;98748.94;108836;1281;22500;-82
2022/06/24 03:57:47;;;;;;;11.10;4.80;;;;;;;16.38;52.32;98746.07;108767;1281;22198;-82
2022/06/24 04:00:17;;;;;;;10.90;5.20;;;;;;;16.46;52.37;98735.17;109175;1281;22735;-82
2022/06/24 04:02:44;;;;;;;10.70;5.30;;;;;;;16.64;52.42;98742.03;108757;1281;22505;-82
2022/06/24 04:05:24;;;;;;;10.30;5.10;;;;;;;16.80;52.39;98738.44;108797;1281;22544;-82
2022/06/24 04:07:57;;;;;;;12.50;5.20;;;;;;;16.88;52.44;98733.04;108838;1281;23038;-82
2022/06/24 04:10:32;;;;;;;11.80;5.50;;;;;;;17.02;52.38;98738.82;109225;1280;22362;-82
2022/06/24 04:12:59;;;;;;;17.40;5.40;;;;;;;17.11;52.31;98741.65;108802;1281;22472;-82
2022/06/24 04:15:30;;;;;;;15.20;5.00;;;;;;;17.17;52.31;98732.04;109023;1281;22387;-82
2022/06/24 04:17:59;;;;;;;12.30;5.90;;;;;;;17.30;52.36;98729.27;108528;1282;22904;-82
2022/06/24 04:20:26;;;;;;;13.50;5.40;;;;;;;17.40;52.40;98731.27;108718;1282;22181;-82
2022/06/24 04:22:53;;;;;;;10.80;4.90;;;;;;;17.51;52.31;98736.21;108934;1281;22354;-82
2022/06/24 04:25:23;;;;;;;13.90;5.40;;;;;;;17.55;52.34;98732.11;109075;1281;22655;-82
2022/06/24 04:27:50;;;;;;;10.50;5.40;;;;;;;17.65;52.28;98732.63;108978;1280;22184;-82
2022/06/24 04:30:17;;;;;;;13.30;5.20;;;;;;;17.72;52.20;98731.89;109011;1281;22377;-82
2022/06/24 04:32:44;;;;;;;9.60;5.00;;;;;;;17.83;52.26;98736.46;108550;1281;22802;-82
2022/06/24 04:35:14;;;;;;;10.50;5.10;;;;;;;17.91;52.25;98733.23;108909;1281;22462;-82
2022/06/24 04:37:44;;;;;;;10.70;5.20;;;;;;;18.01;52.11;98732.31;108763;1281;22433;-82
2022/06/24 04:40:14;;;;;;;12.20;5.40;;;;;;;18.11;52.23;98733.02;108794;1281;22436;-82
2022/06/24 04:42:45;;;;;;;12.20;5.60;;;;;;;18.22;52.14;98727.77;108524;1281;22365;-82
2022/06/24 04:45:17;;;;;;;13.50;5.50;;;;;;;18.33;52.15;98724.33;108781;1281;23065;-82
2022/06/24 04:47:44;;;;;;;15.40;5.40;;;;;;;18.47;52.27;98730.16;108770;1281;22382;-82
2022/06/24 04:50:11;;;;;;;13.70;5.20;;;;;;;18.64;52.13;98731.00;108903;1280;22612;-82
2022/06/24 04:52:39;;;;;;;15.30;5.50;;;;;;;18.78;52.08;98724.39;108667;1281;23193;-82
2022/06/24 04:55:09;;;;;;;11.20;5.30;;;;;;;18.92;52.01;98717.48;108647;1281;22534;-82
2022/06/24 04:57:39;;;;;;;13.80;5.50;;;;;;;19.01;51.94;98716.22;108953;1280;23363;-82
2022/06/24 05:00:09;;;;;;;11.30;5.20;;;;;;;19.18;51.90;98728.61;108680;1281;22445;-82
2022/06/24 05:02:36;;;;;;;13.20;4.80;;;;;;;19.32;51.93;98730.29;108787;1281;22372;-82
2022/06/24 05:05:13;;;;;;;13.00;5.00;;;;;;;19.46;51.89;98729.03;108772;1281;22427;-82
2022/06/24 05:07:46;;;;;;;10.70;4.60;;;;;;;19.62;51.65;98726.95;108783;1281;23068;-82
2022/06/24 05:10:15;;;;;;;10.20;4.40;;;;;;;19.78;51.82;98724.80;108955;1281;23310;-81
2022/06/24 05:12:42;;;;;;;9.30;4.70;;;;;;;19.95;51.69;98723.30;108740;1281;22359;-82
2022/06/24 05:15:09;;;;;;;8.90;4.50;;;;;;;20.09;51.71;98725.73;108765;1281;22380;-82
2022/06/24 05:17:45;;;;;;;10.20;4.40;;;;;;;20.27;51.80;98728.11;109131;1280;22467;-82
2022/06/24 05:20:21;;;;;;;11.30;5.00;;;;;;;20.47;51.66;98729.89;108746;1281;22203;-83
2022/06/24 05:22:54;;;;;;;9.00;4.70;;;;;;;20.59;51.50;98724.38;108945;1281;22427;-82
2022/06/24 05:25:21;;;;;;;11.50;4.50;;;;;;;20.68;51.59;98718.73;108777;1281;22381;-82
2022/06/24 05:27:53;;;;;;;9.40;4.60;;;;;;;20.85;51.65;98722.75;108952;1281;22543;-82
2022/06/24 05:30:20;;;;;;;11.20;4.10;;;;;;;20.98;51.59;98717.16;109058;1280;22548;-83
2022/06/24 05:32:48;;;;;;;12.30;4.50;;;;;;;21.15;51.57;98721.80;108762;1281;22595;-83
2022/06/24 05:35:15;;;;;;;8.40;4.30;;;;;;;21.24;51.56;98709.74;108741;1281;22413;-82
2022/06/24 05:37:43;;;;;;;9.90;4.30;;;;;;;21.45;51.44;98715.45;108690;1281;22523;-83
2022/06/24 05:40:11;;;;;;;7.50;3.60;;;;;;;21.59;51.57;98710.71;108776;1281;22485;-82
2022/06/24 05:42:41;;;;;;;10.40;3.80;;;;;;;21.81;51.54;98716.17;108659;1281;22186;-82
2022/06/24 05:45:11;;;;;;;8.60;4.00;;;;;;;21.97;51.39;98713.77;108951;1280;22490;-83
2022/06/24 05:47:40;;;;;;;10.30;4.60;;;;;;;22.06;51.27;98707.44;108699;1282;22423;-82
2022/06/24 05:50:08;;;;;;;8.40;4.10;;;;;;;22.20;51.04;98711.45;109096;1281;22572;-83
2022/06/24 05:55:23;;;;;;;8.70;3.60;;;;;;;22.50;51.34;98707.87;108797;1281;22505;-82
2022/06/24 05:57:50;;;;;;;9.30;3.80;;;;;;;22.67;51.01;98705.88;108683;1281;22532;-83
2022/06/24 06:00:19;;;;;;;8.70;3.70;;;;;;;22.84;51.15;98704.10;108988;1281;22518;-83
2022/06/24 06:02:46;;;;;;;13.20;3.80;;;;;;;23.05;50.82;98706.70;108805;1280;22400;-83
2022/06/24 06:05:19;;;;;;;13.60;3.60;;;;;;;23.28;50.65;98710.96;108978;1281;22479;-82
2022/06/24 06:07:50;;;;;;;12.50;3.30;;;;;;;23.44;50.67;98705.15;109086;1280;22302;-83
2022/06/24 06:10:17;;;;;;;10.10;3.60;;;;;;;23.61;50.70;98700.59;108731;1281;22508;-82
2022/06/24 06:12:53;;;;;;;9.90;3.10;;;;;;;23.81;50.48;98701.98;108730;1281;22588;-83
2022/06/24 06:15:23;;;;;;;11.00;3.10;;;;;;;23.92;50.53;98693.56;108726;1281;22423;-82
2022/06/24 06:17:50;;;;;;;10.70;3.40;;;;;;;24.08;50.01;98696.23;108880;1281;22447;-83
2022/06/24 06:20:17;;;;;;;11.40;2.80;;;;;;;24.18;50.03;98698.54;108768;1281;22484;-83
2022/06/24 06:22:45;;;;;;;10.30;2.90;;;;;;;24.28;50.02;98694.82;109081;1280;23059;-83
2022/06/24 06:25:19;;;;;;;11.30;3.70;;;;;;;24.47;50.11;98692.48;108672;1281;22668;-84
2022/06/24 06:27:49;;;;;;;10.30;3.10;;;;;;;24.68;49.69;98691.83;108959;1281;22204;-82
2022/06/24 06:30:22;;;;;;;9.10;2.90;;;;;;;24.83;49.87;98689.60;109057;1281;22272;-84
2022/06/24 06:33:00;;;;;;;11.00;2.70;;;;;;;25.05;49.81;98686.18;108753;1281;22466;-84
2022/06/24 06:35:28;;;;;;;8.40;2.70;;;;;;;25.20;49.36;98685.88;108550;1281;22457;-83
2022/06/24 06:37:58;;;;;;;7.70;2.80;;;;;;;25.32;49.48;98680.73;108767;1281;22428;-82
2022/06/24 06:40:25;;;;;;;7.70;2.60;;;;;;;25.40;49.03;98684.52;108945;1281;22405;-82
2022/06/24 06:43:07;;;;;;;7.10;2.40;;;;;;;25.43;49.08;98683.77;108787;1281;22475;-83
2022/06/24 06:45:40;;;;;;;10.90;3.00;;;;;;;25.54;49.13;98683.64;108816;1280;22050;-82
2022/06/24 06:48:09;;;;;;;12.40;3.50;;;;;;;25.62;48.82;98682.57;109003;1281;22526;-82
2022/06/24 06:50:40;;;;;;;14.40;5.80;;;;;;;25.69;48.71;98682.70;109125;1281;22413;-84
2022/06/24 06:53:10;;;;;;;11.30;3.30;;;;;;;25.78;48.68;98682.85;108914;1281;22488;-83
2022/06/24 06:55:38;;;;;;;9.30;3.40;;;;;;;25.86;48.48;98683.59;109050;1281;22390;-83
2022/06/24 06:58:15;;;;;;;12.40;2.80;;;;;;;25.92;48.61;98676.10;108844;1281;22465;-84
2022/06/24 07:01:08;;;;;;;10.50;2.90;;;;;;;26.10;48.72;98670.11;108828;1281;22479;-83
2022/06/24 07:03:39;;;;;;;8.40;3.10;;;;;;;26.31;48.38;98668.03;108874;1281;22523;-83
2022/06/24 07:06:19;;;;;;;7.80;2.60;;;;;;;26.47;48.40;98670.39;108732;1281;22179;-83
2022/06/24 07:08:58;;;;;;;9.80;2.70;;;;;;;26.58;48.17;98666.43;108692;1281;22467;-83
2022/06/24 07:11:30;;;;;;;9.50;2.60;;;;;;;26.71;48.01;98663.75;108757;1282;22696;-82
2022/06/24 07:14:03;;;;;;;9.70;2.70;;;;;;;26.75;47.59;98658.75;109147;1280;22480;-84
2022/06/24 07:16:42;;;;;;;8.60;2.80;;;;;;;26.80;47.43;98660.89;107989;1281;985622;-83
2022/06/24 07:19:18;;;;;;;6.50;2.30;;;;;;;26.84;47.10;98663.56;108714;1281;22419;-84
2022/06/24 07:22:05;;;;;;;6.30;2.20;;;;;;;26.84;46.97;98655.50;108769;1281;22169;-83
2022/06/24 07:24:43;;;;;;;6.10;2.20;;;;;;;26.94;46.97;98653.77;109020;1281;22487;-83
2022/06/24 07:27:14;;;;;;;8.30;2.30;;;;;;;27.14;46.90;98655.74;108773;1281;22430;-84
2022/06/24 07:29:42;;;;;;;7.60;2.30;;;;;;;27.24;46.90;98653.66;109042;1281;22442;-84
2022/06/24 07:32:29;;;;;;;;;;;;;;;;;;;;;
2022/06/24 07:35:20;;;;;;;26.20;12.80;;;;;;;27.43;46.49;98648.50;109138;1280;22240;-84
2022/06/24 07:37:50;;;;;;;9.70;3.60;;;;;;;27.54;46.25;98647.11;109062;1280;22982;-84
2022/06/24 07:41:14;;;;;;;6.40;2.50;;;;;;;27.65;46.29;98653.55;108702;1281;22498;-84
2022/06/24 07:44:01;;;;;;;8.70;2.60;;;;;;;27.73;46.12;98639.60;109265;1279;22478;-82
2022/06/24 07:46:29;;;;;;;7.80;2.50;;;;;;;27.79;46.05;98637.63;108993;1281;22397;-83
2022/06/24 07:48:59;;;;;;;7.80;2.60;;;;;;;27.82;46.06;98638.38;108786;1281;22487;-84
2022/06/24 07:51:28;;;;;;;9.80;2.70;;;;;;;27.87;45.80;98639.48;108806;1282;23115;-84
2022/06/24 07:53:55;;;;;;;37.70;8.90;;;;;;;27.88;45.61;98631.25;108766;1281;22486;-83
2022/06/24 07:59:09;;;;;;;10.00;2.50;;;;;;;28.10;45.77;98629.45;108976;1281;23195;-85
2022/06/24 08:01:36;;;;;;;7.00;2.50;;;;;;;28.23;45.47;98631.84;108856;1279;22402;-83
2022/06/24 08:04:09;;;;;;;9.30;2.30;;;;;;;28.34;45.52;98630.39;109092;1280;22480;-83
2022/06/24 08:06:46;;;;;;;8.40;2.70;;;;;;;28.47;45.32;98623.41;109156;1280;22382;-82
2022/06/24 08:09:13;;;;;;;12.30;3.80;;;;;;;28.66;45.59;98622.46;108786;1281;22492;-84
2022/06/24 08:11:41;;;;;;;23.90;3.50;;;;;;;28.87;45.36;98625.98;109131;1279;22561;-83
2022/06/24 08:14:09;;;;;;;6.90;2.70;;;;;;;29.04;45.39;98624.26;109053;1280;22561;-83
2022/06/24 08:16:36;;;;;;;10.90;2.20;;;;;;;29.19;44.98;98621.48;108783;1279;22477;-85
2022/06/24 08:19:04;;;;;;;6.30;2.40;;;;;;;29.24;44.58;98618.33;109006;1279;22504;-83
2022/06/24 08:21:38;;;;;;;7.00;2.50;;;;;;;29.27;44.54;98619.95;109018;1279;22476;-84
2022/06/24 08:24:06;;;;;;;7.40;2.60;;;;;;;29.32;44.52;98614.70;108837;1279;22435;-83
2022/06/24 08:26:34;;;;;;;6.60;2.20;;;;;;;29.39;44.03;98617.61;108594;1281;22501;-83
2022/06/24 08:29:01;;;;;;;6.30;2.20;;;;;;;29.37;43.85;98614.01;108965;1281;24459;-83
2022/06/24 08:31:38;;;;;;;5.80;2.40;;;;;;;29.36;43.88;98614.30;108741;1278;23221;-85
2022/06/24 08:34:08;;;;;;;7.40;2.50;;;;;;;29.37;43.64;98611.36;108716;1279;22483;-84
2022/06/24 08:36:36;;;;;;;5.60;2.00;;;;;;;29.41;43.73;98608.63;109005;1279;22539;-82
2022/06/24 08:39:07;;;;;;;7.80;2.40;;;;;;;29.55;43.88;98605.88;108971;1280;23113;-84
2022/06/24 08:41:37;;;;;;;8.50;2.50;;;;;;;29.66;43.43;98596.80;108949;1281;22469;-85
2022/06/24 08:44:05;;;;;;;6.30;2.10;;;;;;;29.74;43.47;98596.61;108813;1279;22413;-84
2022/06/24 08:46:32;;;;;;;6.90;2.40;;;;;;;29.79;43.12;98597.65;109220;1279;22951;-83
2022/06/24 08:49:00;;;;;;;6.60;2.40;;;;;;;29.84;43.12;98591.65;108782;1279;22425;-82
2022/06/24 08:51:29;;;;;;;7.70;2.50;;;;;;;29.98;42.92;98592.64;108697;1281;24474;-82
2022/06/24 08:53:57;;;;;;;7.10;2.30;;;;;;;30.02;42.70;98591.91;108922;1281;22497;-82
2022/06/24 08:56:24;;;;;;;6.90;2.40;;;;;;;30.08;42.67;98590.17;108994;1279;22372;-83
2022/06/24 08:58:55;;;;;;;6.90;2.20;;;;;;;30.18;42.71;98587.21;108978;1279;22443;-84
2022/06/24 09:01:24;;;;;;;6.60;2.20;;;;;;;30.36;42.63;98585.87;108722;1281;22979;-82
2022/06/24 09:03:55;;;;;;;10.30;2.50;;;;;;;30.54;41.99;98592.95;108990;1279;22477;-83
2022/06/24 09:06:26;;;;;;;5.80;1.90;;;;;;;30.57;41.94;98586.38;108762;1279;22477;-83
2022/06/24 09:08:56;;;;;;;6.20;2.10;;;;;;;30.58;41.54;98583.38;108734;1280;23307;-83
2022/06/24 09:11:24;;;;;;;6.40;2.20;;;;;;;30.66;41.83;98581.63;108720;1279;22472;-83
2022/06/24 09:13:55;;;;;;;7.80;2.50;;;;;;;30.77;41.69;98571.88;108868;1279;23289;-83
2022/06/24 09:16:25;;;;;;;8.90;2.10;;;;;;;30.98;41.64;98585.65;109090;1281;22470;-82
2022/06/24 09:18:55;;;;;;;5.90;2.00;;;;;;;31.08;41.12;98576.07;108993;1281;22626;-83
2022/06/24 09:21:30;;;;;;;9.00;2.00;;;;;;;31.12;41.28;98572.95;108738;1281;22380;-83
2022/06/24 09:24:08;;;;;;;5.60;2.30;;;;;;;31.23;41.20;98574.86;109038;1281;22461;-84
2022/06/24 09:26:40;;;;;;;8.00;2.40;;;;;;;31.30;41.06;98569.06;108772;1281;23053;-83
2022/06/24 09:29:28;;;;;;;7.10;2.10;;;;;;;31.50;40.82;98574.05;108765;1281;23312;-84
2022/06/24 09:32:04;;;;;;;9.50;2.30;;;;;;;31.58;40.71;98562.66;108991;1280;23096;-82
2022/06/24 09:34:32;;;;;;;6.80;2.00;;;;;;;31.68;40.51;98560.90;108883;1281;23087;-83
2022/06/24 09:36:59;;;;;;;6.50;2.00;;;;;;;31.76;40.41;98557.28;109100;1280;23062;-82
2022/06/24 09:39:35;;;;;;;8.30;2.00;;;;;;;31.86;40.30;98562.28;108865;1281;23750;-84
2022/06/24 09:42:02;;;;;;;8.00;2.10;;;;;;;31.86;40.25;98555.72;109012;1281;22484;-83
2022/06/24 09:44:43;;;;;;;7.90;2.20;;;;;;;31.93;40.20;98556.33;109011;1281;22262;-82
2022/06/24 09:47:13;;;;;;;5.30;1.90;;;;;;;32.17;40.14;98548.16;108832;1281;22417;-82
2022/06/24 09:49:55;;;;;;;5.50;1.90;;;;;;;32.37;39.95;98551.11;108764;1281;22388;-83
2022/06/24 09:52:24;;;;;;;5.60;2.10;;;;;;;32.48;39.40;98552.36;108768;1281;22247;-82
2022/06/24 09:54:55;;;;;;;8.90;2.50;;;;;;;32.48;39.02;98546.24;109136;1281;23150;-83
2022/06/24 09:57:22;;;;;;;7.30;2.10;;;;;;;32.44;38.90;98545.38;108728;1281;23244;-83
2022/06/24 10:02:39;;;;;;;5.80;1.90;;;;;;;32.41;38.97;98536.35;109040;1281;22203;-83
2022/06/24 10:05:13;;;;;;;9.30;1.80;;;;;;;32.35;38.82;98537.05;108913;1281;22494;-83
2022/06/24 10:07:45;;;;;;;5.50;1.90;;;;;;;32.39;38.39;98530.97;108977;1281;22430;-83
2022/06/24 10:10:15;;;;;;;6.60;1.80;;;;;;;32.30;38.43;98539.05;108945;1281;22580;-84
2022/06/24 10:12:54;;;;;;;9.90;2.30;;;;;;;32.23;38.16;98528.98;108743;1281;22367;-83
2022/06/24 10:15:24;;;;;;;6.40;1.80;;;;;;;32.36;38.01;98531.16;109025;1281;22585;-83
2022/06/24 10:17:54;;;;;;;6.20;1.90;;;;;;;32.46;38.32;98527.70;108959;1281;22247;-85
2022/06/24 10:20:22;;;;;;;6.90;2.10;;;;;;;32.69;37.82;98528.08;109284;1279;23250;-83
2022/06/24 10:22:54;;;;;;;5.50;1.90;;;;;;;32.72;37.72;98520.46;109234;1279;22607;-83
2022/06/24 10:25:49;;;;;;;5.20;1.80;;;;;;;32.54;37.39;98526.31;109192;1280;22378;-83
2022/06/24 10:28:25;;;;;;;5.10;1.90;;;;;;;32.49;37.26;98526.35;108902;1279;22180;-83
2022/06/24 10:30:57;;;;;;;4.50;1.70;;;;;;;32.48;37.36;98524.30;109019;1279;22546;-83
2022/06/24 10:33:30;;;;;;;6.10;1.80;;;;;;;32.46;37.21;98520.19;109026;1279;22356;-82
2022/06/24 10:36:06;;;;;;;6.20;1.80;;;;;;;32.33;37.08;98518.74;109018;1281;22256;-83
2022/06/24 10:38:42;;;;;;;4.90;2.20;;;;;;;32.09;37.23;98522.45;108826;1279;22475;-83
2022/06/24 10:41:13;;;;;;;9.00;2.70;;;;;;;31.90;37.02;98522.11;109405;1279;22409;-83
2022/06/24 10:43:47;;;;;;;4.70;1.70;;;;;;;31.78;37.15;98522.92;109300;1279;22380;-84
2022/06/24 10:46:58;;;;;;;7.30;2.20;;;;;;;31.67;36.80;98522.85;109122;1279;22387;-83
2022/06/24 10:50:04;;;;;;;7.00;2.20;;;;;;;31.43;37.05;98518.67;108953;1279;23132;-83
2022/06/24 10:52:55;;;;;;;8.80;3.30;;;;;;;31.38;37.01;98517.67;109374;1279;22405;-84
2022/06/24 10:55:32;;;;;;;11.10;3.00;;;;;;;31.49;36.96;98507.42;109054;1281;22384;-85
2022/06/24 10:58:01;;;;;;;5.80;2.00;;;;;;;31.66;36.93;98501.65;109267;1280;22417;-84
2022/06/24 11:00:54;;;;;;;6.50;2.40;;;;;;;31.73;36.86;98499.95;109034;1281;22176;-84
2022/06/24 11:03:29;;;;;;;5.70;2.20;;;;;;;31.84;36.95;98495.06;108837;1280;22450;-84
2022/06/24 11:06:01;;;;;;;5.40;2.50;;;;;;;31.92;36.52;98495.58;108991;1280;22507;-86
2022/06/24 11:08:29;;;;;;;9.10;2.40;;;;;;;31.98;36.55;98493.81;109252;1279;23105;-84
2022/06/24 11:11:31;;;;;;;6.30;2.00;;;;;;;32.00;36.53;98492.83;109045;1281;22408;-84
2022/06/24 11:14:29;;;;;;;6.90;2.30;;;;;;;32.15;36.62;98487.25;109234;1279;23473;-83
2022/06/24 11:17:27;;;;;;;4.80;1.80;;;;;;;32.34;36.34;98486.69;109003;1279;22511;-83
2022/06/24 11:20:08;;;;;;;8.00;2.10;;;;;;;32.51;36.35;98488.61;108984;1281;23167;-85
2022/06/24 11:23:17;;;;;;;5.10;1.90;;;;;;;32.59;36.03;98484.21;109248;1281;23153;-84
2022/06/24 11:26:40;;;;;;;8.50;2.30;;;;;;;32.59;36.27;98478.76;108987;1281;22265;-84
2022/06/24 11:29:15;;;;;;;5.80;2.20;;;;;;;32.61;36.00;98482.86;108962;1281;23375;-84
2022/06/24 11:32:00;;;;;;;6.50;2.40;;;;;;;32.60;35.91;98473.06;108979;1281;22413;-83
2022/06/24 11:34:36;;;;;;;5.50;2.40;;;;;;;32.56;35.60;98464.98;108961;1281;22598;-85
2022/06/24 11:37:16;;;;;;;;;;;;;;;;;;;;;
2022/06/24 11:39:47;;;;;;;6.80;2.40;;;;;;;32.67;35.72;98466.02;108914;1281;22414;-84
2022/06/24 11:42:24;;;;;;;6.30;2.30;;;;;;;32.68;35.40;98461.38;109025;1281;22416;-82
2022/06/24 11:45:12;;;;;;;7.50;2.40;;;;;;;32.57;35.45;98457.52;109125;1281;23360;-81
2022/06/24 11:47:47;;;;;;;4.80;2.10;;;;;;;32.51;35.73;98459.14;108906;1281;22368;-82
2022/06/24 11:50:22;;;;;;;6.40;2.50;;;;;;;32.53;35.37;98454.23;108962;1281;22422;-82
2022/06/24 11:53:01;;;;;;;7.80;2.40;;;;;;;32.48;35.30;98459.12;108905;1281;22467;-83
2022/06/24 11:55:50;;;;;;;8.90;2.40;;;;;;;32.56;35.36;98467.45;108702;1280;22478;-81
2022/06/24 11:58:36;;;;;;;5.50;2.30;;;;;;;32.41;35.50;98458.08;108959;1281;22230;-81
2022/06/24 12:01:06;;;;;;;6.00;2.20;;;;;;;32.24;35.50;98454.52;108963;1281;22503;-83
2022/06/24 12:03:36;;;;;;;6.20;2.20;;;;;;;32.13;35.36;98462.60;108767;1281;22414;-82
2022/06/24 12:06:06;;;;;;;6.60;2.50;;;;;;;31.95;35.17;98451.25;109088;1280;22494;-83